Gure Amuitz — EASO — position and weather

sailwx.info

Track history (hours):
 
Tides and Currents Weather Stations Pressure Air Temp Water Temp Dewpoint Dewpoint Depression Visibility Wind Speed Wind Dir Waves Ship Positions

Gure Amuitz

Last reported at 2014-Oct-31 16:10 UTC. Time now 2014-Oct-31 20:56 UTC.
Position N 43°23' W 001°47'.

Length 28 m.

Type: Fishing. MMSI: 224010590.

Date/timePositionNaut miles runAvg speedWind from/ knotsBaromVisibWave heightAir tempDewpointWater temp
2014-Oct-31 16:10N 43°23' W 001°47'0 0.0
2014-Oct-31 15:33N 43°23' W 001°47'0 0.0
2014-Oct-31 14:26N 43°23' W 001°47'0 0.0
2014-Oct-31 08:33N 43°23' W 001°47'0 0.0
2014-Oct-30 18:29N 43°23' W 001°47'0 0.0
2014-Oct-30 17:19N 43°23' W 001°47'0 0.0
2014-Oct-30 14:27N 43°23' W 001°47'0 0.0
2014-Oct-30 12:28N 43°23' W 001°48'18 7.8
2014-Oct-30 10:13N 43°41' W 001°45'7 9.6
2014-Oct-30 09:30N 43°47' W 001°44'9 9.7
2014-Oct-30 08:33N 43°57' W 001°42'10 9.8
2014-Oct-30 07:33N 44°06' W 001°41'10 9.9
2014-Oct-30 06:33N 44°16' W 001°39'9 9.2
2014-Oct-30 05:33N 44°25' W 001°37'1 1.1
2014-Oct-30 04:32N 44°26' W 001°37'8 7.8
2014-Oct-30 03:33N 44°34' W 001°35'4 3.8
2014-Oct-30 02:34N 44°37' W 001°31'1 1.0
2014-Oct-30 01:34N 44°36' W 001°31'1 1.0
2014-Oct-30 00:34N 44°35' W 001°31'0 0.3
2014-Oct-29 23:34N 44°34' W 001°30'1 0.9
2014-Oct-29 22:34N 44°34' W 001°30'0 0.4
2014-Oct-29 21:34N 44°33' W 001°30'71 8.8
2014-Oct-29 13:30N 43°23' W 001°48'0 0.0
2014-Oct-29 12:33N 43°23' W 001°47'0 0.0
2014-Oct-29 11:22N 43°23' W 001°48'18 9.4
2014-Oct-29 09:28N 43°41' W 001°42'9 9.5
2014-Oct-29 08:32N 43°49' W 001°39'9 9.6
2014-Oct-29 07:33N 43°58' W 001°36'9 9.3
2014-Oct-29 06:32N 44°08' W 001°34'9 8.8
2014-Oct-29 05:32N 44°16' W 001°31'1 0.8
2014-Oct-29 04:33N 44°16' W 001°32'1 0.8
2014-Oct-29 03:33N 44°15' W 001°31'9 2.7
2014-Oct-29 00:07N 44°08' W 001°38'1 2.5
2014-Oct-28 23:33N 44°09' W 001°38'46 3.8
2014-Oct-28 11:28N 43°23' W 001°47'0 0.4
2014-Oct-28 10:33N 43°23' W 001°48'0 0.0
2014-Oct-27 15:18N 43°23' W 001°47'0 0.3
2014-Oct-27 14:09N 43°23' W 001°47'  
2014-Oct-24 11:19N 43°23' W 001°47'0 0.1
2014-Oct-24 10:33N 43°23' W 001°47'0 0.0
2014-Oct-24 09:33N 43°23' W 001°47'0 0.0
2014-Oct-24 08:33N 43°23' W 001°47'7 7.4
2014-Oct-24 07:33N 43°30' W 001°43'9 9.2
2014-Oct-24 06:33N 43°39' W 001°41'7 6.3
2014-Oct-24 05:29N 43°46' W 001°40'23 1.5
2014-Oct-23 14:18N 43°23' W 001°48'0 0.0
2014-Oct-23 07:33N 43°23' W 001°48'0 0.0
2014-Oct-23 06:33N 43°23' W 001°48'0 0.0
2014-Oct-23 03:03N 43°23' W 001°47'0 0.0
2014-Oct-22 05:32N 43°23' W 001°47'0 0.0
2014-Oct-22 04:31N 43°23' W 001°47'0 0.0
2014-Oct-22 03:30N 43°23' W 001°47'0 0.0
2014-Oct-22 02:31N 43°23' W 001°47'0 0.0
2014-Oct-22 01:33N 43°23' W 001°47'0 0.0
2014-Oct-22 00:31N 43°23' W 001°47'0 0.0
2014-Oct-21 23:32N 43°23' W 001°47'0 0.0
2014-Oct-21 22:30N 43°23' W 001°47'0 0.0
2014-Oct-21 21:11N 43°23' W 001°47'0 0.0
2014-Oct-21 20:28N 43°23' W 001°47'0 0.0
2014-Oct-21 19:29N 43°23' W 001°47'  
Track history (hours):
 
Tides and Currents Weather Stations Pressure Air Temp Water Temp Dewpoint Dewpoint Depression Visibility Wind Speed Wind Dir Waves Ship Positions

Gure Amuitz

Last reported at 2014-Oct-31 16:10 UTC. Time now 2014-Oct-31 20:56 UTC.
Position N 43°23' W 001°47'.

Length 28 m.

Type: Fishing. MMSI: 224010590.

Date/timePositionNaut miles runAvg speedWind from/ knotsBaromVisibWave heightAir tempDewpointWater temp
2014-Oct-31 16:10N 43°23' W 001°47'0 0.0
2014-Oct-31 15:33N 43°23' W 001°47'0 0.0
2014-Oct-31 14:26N 43°23' W 001°47'0 0.0
2014-Oct-31 08:33N 43°23' W 001°47'0 0.0
2014-Oct-30 18:29N 43°23' W 001°47'0 0.0
2014-Oct-30 17:19N 43°23' W 001°47'0 0.0
2014-Oct-30 14:27N 43°23' W 001°47'0 0.0
2014-Oct-30 12:28N 43°23' W 001°48'18 7.8
2014-Oct-30 10:13N 43°41' W 001°45'7 9.6
2014-Oct-30 09:30N 43°47' W 001°44'9 9.7
2014-Oct-30 08:33N 43°57' W 001°42'10 9.8
2014-Oct-30 07:33N 44°06' W 001°41'10 9.9
2014-Oct-30 06:33N 44°16' W 001°39'9 9.2
2014-Oct-30 05:33N 44°25' W 001°37'1 1.1
2014-Oct-30 04:32N 44°26' W 001°37'8 7.8
2014-Oct-30 03:33N 44°34' W 001°35'4 3.8
2014-Oct-30 02:34N 44°37' W 001°31'1 1.0
2014-Oct-30 01:34N 44°36' W 001°31'1 1.0
2014-Oct-30 00:34N 44°35' W 001°31'0 0.3
2014-Oct-29 23:34N 44°34' W 001°30'1 0.9
2014-Oct-29 22:34N 44°34' W 001°30'0 0.4
2014-Oct-29 21:34N 44°33' W 001°30'71 8.8
2014-Oct-29 13:30N 43°23' W 001°48'0 0.0
2014-Oct-29 12:33N 43°23' W 001°47'0 0.0
2014-Oct-29 11:22N 43°23' W 001°48'18 9.4
2014-Oct-29 09:28N 43°41' W 001°42'9 9.5
2014-Oct-29 08:32N 43°49' W 001°39'9 9.6
2014-Oct-29 07:33N 43°58' W 001°36'9 9.3
2014-Oct-29 06:32N 44°08' W 001°34'9 8.8
2014-Oct-29 05:32N 44°16' W 001°31'1 0.8
2014-Oct-29 04:33N 44°16' W 001°32'1 0.8
2014-Oct-29 03:33N 44°15' W 001°31'9 2.7
2014-Oct-29 00:07N 44°08' W 001°38'1 2.5
2014-Oct-28 23:33N 44°09' W 001°38'46 3.8
2014-Oct-28 11:28N 43°23' W 001°47'0 0.4
2014-Oct-28 10:33N 43°23' W 001°48'0 0.0
2014-Oct-27 15:18N 43°23' W 001°47'0 0.3
2014-Oct-27 14:09N 43°23' W 001°47'  
2014-Oct-24 11:19N 43°23' W 001°47'0 0.1
2014-Oct-24 10:33N 43°23' W 001°47'0 0.0
2014-Oct-24 09:33N 43°23' W 001°47'0 0.0
2014-Oct-24 08:33N 43°23' W 001°47'7 7.4
2014-Oct-24 07:33N 43°30' W 001°43'9 9.2
2014-Oct-24 06:33N 43°39' W 001°41'7 6.3
2014-Oct-24 05:29N 43°46' W 001°40'23 1.5
2014-Oct-23 14:18N 43°23' W 001°48'0 0.0
2014-Oct-23 07:33N 43°23' W 001°48'0 0.0
2014-Oct-23 06:33N 43°23' W 001°48'0 0.0
2014-Oct-23 03:03N 43°23' W 001°47'0 0.0
2014-Oct-22 05:32N 43°23' W 001°47'0 0.0
2014-Oct-22 04:31N 43°23' W 001°47'0 0.0
2014-Oct-22 03:30N 43°23' W 001°47'0 0.0
2014-Oct-22 02:31N 43°23' W 001°47'0 0.0
2014-Oct-22 01:33N 43°23' W 001°47'0 0.0
2014-Oct-22 00:31N 43°23' W 001°47'0 0.0
2014-Oct-21 23:32N 43°23' W 001°47'0 0.0
2014-Oct-21 22:30N 43°23' W 001°47'0 0.0
2014-Oct-21 21:11N 43°23' W 001°47'0 0.0
2014-Oct-21 20:28N 43°23' W 001°47'0 0.0
2014-Oct-21 19:29N 43°23' W 001°47'  

Dump ship's entire track history